createdAt,value
2023-01-19T00:00:56.291Z,5.85
2023-01-19T00:03:23.244Z,5.80
2023-01-19T00:05:50.513Z,5.75
2023-01-19T00:08:18.761Z,6.30
2023-01-19T00:10:48.266Z,6.20
2023-01-19T00:13:15.922Z,6.47
2023-01-19T00:15:43.282Z,6.97
2023-01-19T00:18:11.130Z,5.78
2023-01-19T00:20:41.569Z,6.90
2023-01-19T00:23:09.535Z,6.68
2023-01-19T00:25:42.665Z,6.75
2023-01-19T00:28:15.346Z,6.53
2023-01-19T00:30:43.255Z,6.60
2023-01-19T00:33:13.771Z,6.72
2023-01-19T00:35:42.685Z,5.90
2023-01-19T00:38:11.154Z,6.40
2023-01-19T00:40:38.172Z,6.40
2023-01-19T00:43:05.190Z,7.20
2023-01-19T00:45:33.900Z,6.22
2023-01-19T00:48:00.963Z,6.90
2023-01-19T00:50:30.161Z,6.35
2023-01-19T00:53:00.953Z,7.00
2023-01-19T00:55:29.243Z,5.95
2023-01-19T00:57:56.383Z,7.15
2023-01-19T01:00:23.795Z,6.85
2023-01-19T01:02:52.985Z,5.95
2023-01-19T01:05:20.180Z,7.18
2023-01-19T01:07:49.533Z,6.93
2023-01-19T01:10:22.202Z,6.70
2023-01-19T01:12:57.385Z,6.70
2023-01-19T01:15:27.530Z,6.60
2023-01-19T01:17:55.241Z,6.05
2023-01-19T01:20:27.009Z,6.95
2023-01-19T01:22:55.059Z,6.57
2023-01-19T01:25:24.856Z,6.63
2023-01-19T01:27:52.352Z,5.57
2023-01-19T01:30:20.329Z,6.90
2023-01-19T01:32:47.624Z,6.25
2023-01-19T01:35:14.919Z,6.28
2023-01-19T01:37:42.763Z,6.60
2023-01-19T01:40:13.389Z,6.65
2023-01-19T01:42:40.730Z,6.18
2023-01-19T01:45:15.412Z,6.68
2023-01-19T01:47:46.280Z,6.20
2023-01-19T01:50:29.653Z,6.63
2023-01-19T01:53:06.647Z,6.03
2023-01-19T01:55:46.049Z,6.22
2023-01-19T01:58:16.123Z,6.68
2023-01-19T02:01:02.253Z,6.75
2023-01-19T02:03:29.853Z,5.85
2023-01-19T02:06:01.249Z,6.38
2023-01-19T02:08:47.133Z,5.78
2023-01-19T02:11:32.827Z,5.60
2023-01-19T02:13:59.846Z,5.90
2023-01-19T02:16:26.876Z,6.20
2023-01-19T02:18:53.866Z,6.03
2023-01-19T02:21:52.145Z,6.43
2023-01-19T02:24:20.164Z,6.50
2023-01-19T02:26:49.061Z,6.32
2023-01-19T02:29:21.361Z,6.88
2023-01-19T02:31:48.588Z,6.28
2023-01-19T02:34:19.041Z,6.47
2023-01-19T02:37:10.017Z,6.28
2023-01-19T02:39:42.115Z,6.32
2023-01-19T02:42:15.154Z,6.00
2023-01-19T02:44:45.608Z,6.68
2023-01-19T02:47:13.216Z,6.60
2023-01-19T02:49:40.331Z,6.72
2023-01-19T02:52:15.561Z,7.00
2023-01-19T02:54:58.335Z,7.38
2023-01-19T02:57:49.462Z,6.20
2023-01-19T03:00:28.414Z,5.60
2023-01-19T03:03:16.288Z,7.13
2023-01-19T03:06:07.817Z,5.97
2023-01-19T03:08:59.009Z,6.13
2023-01-19T03:11:32.088Z,6.45
2023-01-19T03:14:09.014Z,6.30
2023-01-19T03:16:48.539Z,6.47
2023-01-19T03:19:27.590Z,6.65
2023-01-19T03:22:29.395Z,6.03
2023-01-19T03:25:01.381Z,6.38
2023-01-19T03:27:40.921Z,6.07
2023-01-19T03:30:15.876Z,6.28
2023-01-19T03:32:48.804Z,6.50
2023-01-19T03:35:19.647Z,6.05
2023-01-19T03:37:50.891Z,6.05
2023-01-19T03:40:18.141Z,6.45
2023-01-19T03:42:45.572Z,6.28
2023-01-19T03:45:14.183Z,6.65
2023-01-19T03:47:41.965Z,6.55
2023-01-19T03:50:15.150Z,7.07
2023-01-19T03:52:42.183Z,6.90
2023-01-19T03:55:10.039Z,6.43
2023-01-19T03:57:37.418Z,6.70
2023-01-19T04:00:05.267Z,7.32
2023-01-19T04:02:39.010Z,6.72
2023-01-19T04:05:06.438Z,7.25
2023-01-19T04:07:33.392Z,6.78
2023-01-19T04:10:00.300Z,6.68
2023-01-19T04:12:27.490Z,6.93
2023-01-19T04:14:54.583Z,6.93
2023-01-19T04:17:21.474Z,6.65
2023-01-19T04:19:48.521Z,7.05
2023-01-19T04:22:15.436Z,7.35
2023-01-19T04:24:42.442Z,7.93
2023-01-19T04:27:09.347Z,7.80
2023-01-19T04:29:36.303Z,7.32
2023-01-19T04:32:03.273Z,7.72
2023-01-19T04:34:30.289Z,8.38
2023-01-19T04:36:57.232Z,7.75
2023-01-19T04:39:24.248Z,7.57
2023-01-19T04:41:52.056Z,9.43
2023-01-19T04:44:19.032Z,7.47
2023-01-19T04:46:46.313Z,8.55
2023-01-19T04:49:13.408Z,14.15
2023-01-19T04:51:40.362Z,8.88
2023-01-19T04:54:09.075Z,8.90
2023-01-19T04:56:36.923Z,7.35
2023-01-19T04:59:04.028Z,7.68
2023-01-19T05:01:31.219Z,9.68
2023-01-19T05:04:03.725Z,8.65
2023-01-19T05:06:30.662Z,8.85
2023-01-19T05:08:57.663Z,9.70
2023-01-19T05:11:24.587Z,9.98
2023-01-19T05:13:51.617Z,9.10
2023-01-19T05:16:18.582Z,9.30
2023-01-19T05:18:45.556Z,8.88
2023-01-19T05:21:12.487Z,9.85
2023-01-19T05:23:39.416Z,9.38
2023-01-19T05:26:06.415Z,10.73
2023-01-19T05:28:34.035Z,9.02
2023-01-19T05:31:01.312Z,9.63
2023-01-19T05:33:28.498Z,9.40
2023-01-19T05:35:56.012Z,8.20
2023-01-19T05:38:34.398Z,10.60
2023-01-19T05:41:02.522Z,9.60
2023-01-19T05:43:29.540Z,10.13
2023-01-19T05:45:56.485Z,9.77
2023-01-19T05:48:23.479Z,9.77
2023-01-19T05:50:50.494Z,9.90
2023-01-19T05:53:17.769Z,8.48
2023-01-19T05:55:44.975Z,8.38
2023-01-19T05:58:12.115Z,9.35
2023-01-19T06:00:39.218Z,9.02
2023-01-19T06:03:06.647Z,9.65
2023-01-19T06:05:34.095Z,9.30
2023-01-19T06:08:01.942Z,9.30
2023-01-19T06:10:29.030Z,8.82
2023-01-19T06:12:56.023Z,9.43
2023-01-19T06:15:23.109Z,9.43
2023-01-19T06:17:50.001Z,10.32
2023-01-19T06:20:17.431Z,9.85
2023-01-19T06:22:44.488Z,9.93
2023-01-19T06:25:12.009Z,8.95
2023-01-19T06:27:39.930Z,9.45
2023-01-19T06:30:07.553Z,9.18
2023-01-19T06:32:34.483Z,8.63
2023-01-19T06:35:01.679Z,9.05
2023-01-19T06:37:30.550Z,8.40
2023-01-19T06:39:57.508Z,8.95
2023-01-19T06:42:24.508Z,8.32
2023-01-19T06:44:51.443Z,8.80
2023-01-19T06:47:18.446Z,9.13
2023-01-19T06:49:45.365Z,8.32
2023-01-19T06:52:16.152Z,9.43
2023-01-19T06:54:45.405Z,8.55
2023-01-19T06:57:13.197Z,8.60
2023-01-19T06:59:40.404Z,9.43
2023-01-19T07:02:26.557Z,8.85
2023-01-19T07:04:54.488Z,9.43
2023-01-19T07:07:21.516Z,9.15
2023-01-19T07:09:48.484Z,10.52
2023-01-19T07:12:15.411Z,9.10
2023-01-19T07:14:42.811Z,9.13
2023-01-19T07:17:10.836Z,9.75
2023-01-19T07:19:38.089Z,10.40
2023-01-19T07:22:05.049Z,10.38
2023-01-19T07:24:33.680Z,9.63
2023-01-19T07:27:00.728Z,9.30
2023-01-19T07:29:27.798Z,8.98
2023-01-19T07:31:55.249Z,8.73
2023-01-19T07:34:22.446Z,8.88
2023-01-19T07:36:49.573Z,9.02
2023-01-19T07:39:16.725Z,10.32
2023-01-19T07:41:43.681Z,9.70
2023-01-19T07:44:10.649Z,9.57
2023-01-19T07:46:37.562Z,9.52
2023-01-19T07:49:04.779Z,10.32
2023-01-19T07:51:31.941Z,9.20
2023-01-19T07:53:58.913Z,9.25
2023-01-19T07:56:27.794Z,8.73
2023-01-19T07:58:54.921Z,9.65
2023-01-19T08:01:22.341Z,9.85
2023-01-19T08:03:49.996Z,9.85
2023-01-19T08:06:26.301Z,9.88
2023-01-19T08:08:53.289Z,9.70
2023-01-19T08:11:20.190Z,8.85
2023-01-19T08:13:47.453Z,9.50
2023-01-19T08:16:14.395Z,9.57
2023-01-19T08:18:41.549Z,8.52
2023-01-19T08:21:09.009Z,9.07
2023-01-19T08:23:36.082Z,9.50
2023-01-19T08:26:17.089Z,9.80
2023-01-19T08:28:44.086Z,8.30
2023-01-19T08:31:19.697Z,9.25
2023-01-19T08:33:47.952Z,9.13
2023-01-19T08:36:14.943Z,9.35
2023-01-19T08:38:44.702Z,9.68
2023-01-19T08:41:12.192Z,9.40
2023-01-19T08:43:39.189Z,9.07
2023-01-19T08:46:06.835Z,9.43
2023-01-19T08:48:34.130Z,9.60
2023-01-19T08:51:01.121Z,8.45
2023-01-19T08:53:28.615Z,9.48
2023-01-19T08:55:57.560Z,9.77
2023-01-19T08:58:24.620Z,9.55
2023-01-19T09:00:52.734Z,9.73
2023-01-19T09:03:21.674Z,9.18
2023-01-19T09:05:49.088Z,8.40
2023-01-19T09:08:16.238Z,8.80
2023-01-19T09:10:51.198Z,8.70
2023-01-19T09:13:20.292Z,9.57
2023-01-19T09:15:47.633Z,10.00
2023-01-19T09:18:17.827Z,9.65
2023-01-19T09:20:46.272Z,9.38
2023-01-19T09:23:15.577Z,9.27
2023-01-19T09:25:45.071Z,9.57
2023-01-19T09:28:14.690Z,9.35
2023-01-19T09:30:43.308Z,10.45
2023-01-19T09:33:13.130Z,10.00
2023-01-19T09:35:40.605Z,9.20
2023-01-19T09:38:09.053Z,9.50
2023-01-19T09:40:45.508Z,8.45
2023-01-19T09:43:19.775Z,10.40
2023-01-19T09:45:57.577Z,9.25
2023-01-19T09:48:42.082Z,9.07
2023-01-19T09:51:20.391Z,9.20
2023-01-19T09:53:52.532Z,8.85
2023-01-19T09:56:21.055Z,9.52
2023-01-19T09:58:51.060Z,8.07
2023-01-19T10:01:36.068Z,9.63
2023-01-19T10:04:35.995Z,8.70
2023-01-19T10:07:08.950Z,8.23
2023-01-19T10:09:49.338Z,8.98
2023-01-19T10:12:50.969Z,8.40
2023-01-19T10:15:32.747Z,8.95
2023-01-19T10:18:05.575Z,8.63
2023-01-19T10:20:39.900Z,7.78
2023-01-19T10:23:32.389Z,7.55
2023-01-19T10:26:03.183Z,7.95
2023-01-19T10:28:30.507Z,8.35
2023-01-19T10:30:57.646Z,9.15
2023-01-19T10:33:24.859Z,7.93
2023-01-19T10:35:51.792Z,7.90
2023-01-19T10:38:22.491Z,8.23
2023-01-19T10:40:56.563Z,7.72
2023-01-19T10:43:35.388Z,8.82
2023-01-19T10:46:06.821Z,6.47
2023-01-19T10:48:42.064Z,7.82
2023-01-19T10:51:10.767Z,7.80
2023-01-19T10:53:38.344Z,7.93
2023-01-19T10:56:23.212Z,8.98
2023-01-19T10:58:50.548Z,8.68
2023-01-19T11:01:20.842Z,8.35
2023-01-19T11:03:48.093Z,9.73
2023-01-19T11:06:20.931Z,8.00
2023-01-19T11:08:51.495Z,8.77
2023-01-19T11:11:20.636Z,8.32
2023-01-19T11:14:05.314Z,8.23
2023-01-19T11:16:34.879Z,8.95
2023-01-19T11:19:03.235Z,7.60
2023-01-19T11:21:32.125Z,8.35
2023-01-19T11:24:08.990Z,8.02
2023-01-19T11:26:49.269Z,8.18
2023-01-19T11:29:22.731Z,8.48
2023-01-19T11:31:50.735Z,7.05
2023-01-19T11:34:39.850Z,7.78
2023-01-19T11:37:27.346Z,7.88
2023-01-19T11:39:58.090Z,8.10
2023-01-19T11:42:26.609Z,7.75
2023-01-19T11:44:56.274Z,7.97
2023-01-19T11:47:52.616Z,8.45
2023-01-19T11:50:31.745Z,7.95
2023-01-19T11:53:17.594Z,8.55
2023-01-19T11:55:50.901Z,6.82
2023-01-19T11:58:19.213Z,8.77
2023-01-19T12:00:54.767Z,8.50
2023-01-19T12:03:32.573Z,7.40
2023-01-19T12:06:06.973Z,8.48
2023-01-19T12:08:42.408Z,7.75
2023-01-19T12:11:14.864Z,6.95
2023-01-19T12:13:44.148Z,8.18
2023-01-19T12:16:19.983Z,8.45
2023-01-19T12:19:18.711Z,8.02
2023-01-19T12:21:49.278Z,8.23
2023-01-19T12:24:25.993Z,7.88
2023-01-19T12:27:17.697Z,7.57
2023-01-19T12:29:46.378Z,7.28
2023-01-19T12:32:13.404Z,7.10
2023-01-19T12:34:48.645Z,6.80
2023-01-19T12:37:30.551Z,7.80
2023-01-19T12:40:05.628Z,7.63
2023-01-19T12:42:34.116Z,7.78
2023-01-19T12:45:13.582Z,7.15
2023-01-19T12:47:53.206Z,7.45
2023-01-19T12:50:23.427Z,6.75
2023-01-19T12:52:57.269Z,7.22
2023-01-19T12:55:33.279Z,7.00
2023-01-19T12:58:21.851Z,8.20
2023-01-19T13:00:51.346Z,6.72
2023-01-19T13:03:18.338Z,7.82
2023-01-19T13:05:49.021Z,7.47
2023-01-19T13:08:18.440Z,7.18
2023-01-19T13:11:01.943Z,7.18
2023-01-19T13:13:38.794Z,7.95
2023-01-19T13:16:21.321Z,7.38
2023-01-19T13:18:48.568Z,7.78
2023-01-19T13:21:39.756Z,7.15
2023-01-19T13:24:22.457Z,7.65
2023-01-19T13:26:49.481Z,7.28
2023-01-19T13:29:36.495Z,7.55
2023-01-19T13:32:16.904Z,7.30
2023-01-19T13:35:02.911Z,6.40
2023-01-19T13:37:37.266Z,6.93
2023-01-19T13:40:05.029Z,7.18
2023-01-19T13:42:39.397Z,7.10
2023-01-19T13:45:34.223Z,7.30
2023-01-19T13:48:05.115Z,7.25
2023-01-19T13:50:35.823Z,7.20
2023-01-19T13:53:04.649Z,5.88
2023-01-19T13:55:32.162Z,6.22
2023-01-19T13:57:59.126Z,6.05
2023-01-19T14:00:30.870Z,5.85
2023-01-19T14:03:13.337Z,6.68
2023-01-19T14:05:42.539Z,6.82
2023-01-19T14:08:12.333Z,7.60
2023-01-19T14:10:47.862Z,6.35
2023-01-19T14:13:20.611Z,6.10
2023-01-19T14:15:51.640Z,6.85
2023-01-19T14:18:21.308Z,8.57
2023-01-19T14:20:55.412Z,7.60
2023-01-19T14:23:40.540Z,6.38
2023-01-19T14:26:40.188Z,6.50
2023-01-19T14:29:12.002Z,7.90
2023-01-19T14:31:48.051Z,7.60
2023-01-19T14:34:38.991Z,6.25
2023-01-19T14:37:16.733Z,6.65
2023-01-19T14:39:55.659Z,6.85
2023-01-19T14:42:29.638Z,6.75
2023-01-19T14:44:59.086Z,7.93
2023-01-19T14:47:39.856Z,7.38
2023-01-19T14:50:18.963Z,6.80
2023-01-19T14:52:59.491Z,7.10
2023-01-19T14:55:35.098Z,7.03
2023-01-19T14:58:02.318Z,7.30
2023-01-19T15:00:29.473Z,7.88
2023-01-19T15:02:56.496Z,7.20
2023-01-19T15:05:23.880Z,7.85
2023-01-19T15:07:52.113Z,8.63
2023-01-19T15:10:24.008Z,8.63
2023-01-19T15:12:52.778Z,8.25
2023-01-19T15:15:32.415Z,7.70
2023-01-19T15:18:01.641Z,7.90
2023-01-19T15:20:28.809Z,7.35
2023-01-19T15:22:55.870Z,8.50
2023-01-19T15:25:26.197Z,10.70
2023-01-19T15:27:57.039Z,9.63
2023-01-19T15:30:45.015Z,9.82
2023-01-19T15:33:21.578Z,8.82
2023-01-19T15:35:48.778Z,9.65
2023-01-19T15:38:15.901Z,8.25
2023-01-19T15:40:44.116Z,7.88
2023-01-19T15:43:11.750Z,8.32
2023-01-19T15:45:43.938Z,8.10
2023-01-19T15:48:11.917Z,8.45
2023-01-19T15:50:44.076Z,8.32
2023-01-19T15:53:16.357Z,7.35
2023-01-19T15:55:43.780Z,7.90
2023-01-19T15:58:13.944Z,8.35
2023-01-19T16:00:41.627Z,8.40
2023-01-19T16:03:10.285Z,8.52
2023-01-19T16:05:42.868Z,8.32
2023-01-19T16:08:15.573Z,7.70
2023-01-19T16:10:43.461Z,7.10
2023-01-19T16:13:11.964Z,7.63
2023-01-19T16:15:40.089Z,8.48
2023-01-19T16:18:07.129Z,7.40
2023-01-19T16:20:34.382Z,7.38
2023-01-19T16:23:16.771Z,7.35
2023-01-19T16:25:44.286Z,7.20
2023-01-19T16:28:11.537Z,7.65
2023-01-19T16:30:38.508Z,8.25
2023-01-19T16:33:05.612Z,7.32
2023-01-19T16:35:32.572Z,7.75
2023-01-19T16:37:59.482Z,8.45
2023-01-19T16:40:26.528Z,8.25
2023-01-19T16:42:53.483Z,8.45
2023-01-19T16:45:20.608Z,8.68
2023-01-19T16:47:50.682Z,9.23
2023-01-19T16:50:17.926Z,9.15
2023-01-19T16:52:45.195Z,7.85
2023-01-19T16:55:12.320Z,8.20
2023-01-19T16:57:39.226Z,6.90
2023-01-19T17:00:09.354Z,8.95
2023-01-19T17:02:36.723Z,8.88
2023-01-19T17:05:04.374Z,7.90
2023-01-19T17:07:31.368Z,9.32
2023-01-19T17:09:58.371Z,8.80
2023-01-19T17:12:25.363Z,8.80
2023-01-19T17:14:52.289Z,8.32
2023-01-19T17:17:19.295Z,9.15
2023-01-19T17:19:46.220Z,9.02
2023-01-19T17:22:14.300Z,7.93
2023-01-19T17:24:42.532Z,8.80
2023-01-19T17:27:10.054Z,9.27
2023-01-19T17:29:37.266Z,8.30
2023-01-19T17:32:04.696Z,8.77
2023-01-19T17:34:32.059Z,8.82
2023-01-19T17:37:03.107Z,8.82
2023-01-19T17:39:30.470Z,8.52
2023-01-19T17:41:58.219Z,9.10
2023-01-19T17:44:25.256Z,8.23
2023-01-19T17:46:52.211Z,9.30
2023-01-19T17:49:19.533Z,8.70
2023-01-19T17:51:51.840Z,8.50
2023-01-19T17:54:18.903Z,8.45
2023-01-19T17:56:45.886Z,10.30
2023-01-19T17:59:13.007Z,9.48
2023-01-19T18:01:40.519Z,9.00
2023-01-19T18:04:08.989Z,9.70
2023-01-19T18:06:37.074Z,8.80
2023-01-19T18:09:05.016Z,8.88
2023-01-19T18:11:32.062Z,8.38
2023-01-19T18:14:01.006Z,9.02
2023-01-19T18:16:29.964Z,8.82
2023-01-19T18:18:58.085Z,9.93
2023-01-19T18:21:28.224Z,8.57
2023-01-19T18:24:02.306Z,8.88
2023-01-19T18:26:29.936Z,8.23
2023-01-19T18:28:57.473Z,7.65
2023-01-19T18:31:25.425Z,7.82
2023-01-19T18:33:52.800Z,8.48
2023-01-19T18:36:20.306Z,9.07
2023-01-19T18:38:47.898Z,8.80
2023-01-19T18:41:16.944Z,8.52
2023-01-19T18:43:44.977Z,10.45
2023-01-19T18:46:12.657Z,10.30
2023-01-19T18:48:40.033Z,9.30
2023-01-19T18:51:12.715Z,10.30
2023-01-19T18:53:40.380Z,11.75
2023-01-19T18:56:15.309Z,10.60
2023-01-19T18:58:42.931Z,11.25
2023-01-19T19:01:26.430Z,9.55
2023-01-19T19:03:55.410Z,9.15
2023-01-19T19:06:24.075Z,10.82
2023-01-19T19:08:55.767Z,11.02
2023-01-19T19:11:24.762Z,11.40
2023-01-19T19:13:57.410Z,11.25
2023-01-19T19:16:25.031Z,11.30
2023-01-19T19:18:52.269Z,10.38
2023-01-19T19:21:21.234Z,10.45
2023-01-19T19:23:56.729Z,10.73
2023-01-19T19:26:25.644Z,11.88
2023-01-19T19:28:52.700Z,12.43
2023-01-19T19:31:22.183Z,12.55
2023-01-19T19:33:50.925Z,12.75
2023-01-19T19:36:19.856Z,11.52
2023-01-19T19:38:48.682Z,12.40
2023-01-19T19:41:22.596Z,11.73
2023-01-19T19:43:50.476Z,11.68
2023-01-19T19:46:21.801Z,12.20
2023-01-19T19:48:49.594Z,11.32
2023-01-19T19:51:22.807Z,12.85
2023-01-19T19:53:51.880Z,12.57
2023-01-19T19:56:22.657Z,13.48
2023-01-19T19:58:51.234Z,13.70
2023-01-19T20:01:21.325Z,12.55
2023-01-19T20:03:49.339Z,11.98
2023-01-19T20:06:20.841Z,13.35
2023-01-19T20:08:49.474Z,13.05
2023-01-19T20:11:20.516Z,13.10
2023-01-19T20:13:47.777Z,14.02
2023-01-19T20:16:17.437Z,15.85
2023-01-19T20:18:51.430Z,14.95
2023-01-19T20:21:23.043Z,14.32
2023-01-19T20:23:51.118Z,12.70
2023-01-19T20:26:21.884Z,13.35
2023-01-19T20:28:48.908Z,13.75
2023-01-19T20:31:17.799Z,14.95
2023-01-19T20:33:46.064Z,14.70
2023-01-19T20:36:14.000Z,15.00
2023-01-19T20:38:41.819Z,14.80
2023-01-19T20:41:11.111Z,14.95
2023-01-19T20:43:39.039Z,15.70
2023-01-19T20:46:06.532Z,14.68
2023-01-19T20:48:33.713Z,15.18
2023-01-19T20:51:12.984Z,15.85
2023-01-19T20:53:41.456Z,15.07
2023-01-19T20:56:11.972Z,14.65
2023-01-19T20:58:39.268Z,15.20
2023-01-19T21:01:22.146Z,14.63
2023-01-19T21:03:49.460Z,15.68
2023-01-19T21:06:25.724Z,14.88
2023-01-19T21:08:52.964Z,13.05
2023-01-19T21:11:21.365Z,14.23
2023-01-19T21:13:50.688Z,13.70
2023-01-19T21:16:17.996Z,14.98
2023-01-19T21:18:44.936Z,15.70
2023-01-19T21:21:24.592Z,14.27
2023-01-19T21:23:57.491Z,14.15
2023-01-19T21:26:24.574Z,14.60
2023-01-19T21:28:51.571Z,13.07
2023-01-19T21:31:18.632Z,12.65
2023-01-19T21:33:45.673Z,13.90
2023-01-19T21:36:12.748Z,14.20
2023-01-19T21:38:39.843Z,13.73
2023-01-19T21:41:09.746Z,14.15
2023-01-19T21:43:39.173Z,13.93
2023-01-19T21:46:13.651Z,13.50
2023-01-19T21:48:42.335Z,13.85
2023-01-19T21:51:10.087Z,15.45
2023-01-19T21:53:37.186Z,13.90
2023-01-19T21:56:07.130Z,13.45
2023-01-19T21:58:34.273Z,14.70
2023-01-19T22:01:07.234Z,14.88
2023-01-19T22:03:34.344Z,15.18
2023-01-19T22:06:09.582Z,13.57
2023-01-19T22:08:37.489Z,14.95
2023-01-19T22:11:10.030Z,14.25
2023-01-19T22:13:40.706Z,13.85
2023-01-19T22:16:18.904Z,13.85
2023-01-19T22:18:51.658Z,14.00
2023-01-19T22:21:21.258Z,13.38
2023-01-19T22:23:53.809Z,13.82
2023-01-19T22:26:21.084Z,13.88
2023-01-19T22:28:48.094Z,13.13
2023-01-19T22:31:17.053Z,13.73
2023-01-19T22:33:44.748Z,13.80
2023-01-19T22:36:24.801Z,14.75
2023-01-19T22:39:03.861Z,13.05
2023-01-19T22:41:36.568Z,13.68
2023-01-19T22:44:07.263Z,13.48
2023-01-19T22:46:36.385Z,13.27
2023-01-19T22:49:04.816Z,13.25
2023-01-19T22:51:32.694Z,13.02
2023-01-19T22:54:00.285Z,13.05
2023-01-19T22:56:30.490Z,11.85
2023-01-19T22:58:58.561Z,12.25
2023-01-19T23:01:53.226Z,12.57
2023-01-19T23:04:20.376Z,12.68
2023-01-19T23:06:50.422Z,13.02
2023-01-19T23:09:18.156Z,12.35
2023-01-19T23:11:50.500Z,12.23
2023-01-19T23:14:20.832Z,12.13
2023-01-19T23:16:48.527Z,12.40
2023-01-19T23:19:17.202Z,11.02
2023-01-19T23:21:44.700Z,12.77
2023-01-19T23:24:12.364Z,12.00
2023-01-19T23:26:39.449Z,11.30
2023-01-19T23:29:15.626Z,11.65
2023-01-19T23:31:45.343Z,12.18
2023-01-19T23:34:13.495Z,12.40
2023-01-19T23:36:41.457Z,11.93
2023-01-19T23:39:16.315Z,11.80
2023-01-19T23:41:43.311Z,11.80
2023-01-19T23:44:10.374Z,11.85
2023-01-19T23:46:37.400Z,12.65
2023-01-19T23:49:04.615Z,12.82
2023-01-19T23:51:32.720Z,12.38
2023-01-19T23:54:00.508Z,12.65
2023-01-19T23:56:30.044Z,11.88
2023-01-19T23:59:02.248Z,12.43
